sensor_id;sensor_type;location;lat;lon;timestamp;pressure;altitude;pressure_sealevel;temperature;humidity
42859;BME280;28505;56.970;40.998;2022-07-18T00:04:29;99930.13;;;15.26;100.00
42859;BME280;28505;56.970;40.998;2022-07-18T00:09:52;99911.50;;;15.16;100.00
42859;BME280;28505;56.970;40.998;2022-07-18T00:15:15;99904.91;;;15.17;100.00
42859;BME280;28505;56.970;40.998;2022-07-18T00:20:37;99921.19;;;15.34;100.00
42859;BME280;28505;56.970;40.998;2022-07-18T00:26:02;99903.78;;;15.27;100.00
42859;BME280;28505;56.970;40.998;2022-07-18T00:31:24;99948.75;;;15.54;100.00
42859;BME280;28505;56.970;40.998;2022-07-18T00:36:48;99972.22;;;15.67;100.00
42859;BME280;28505;56.970;40.998;2022-07-18T00:42:10;99921.34;;;15.29;100.00
42859;BME280;28505;56.970;40.998;2022-07-18T00:47:33;99948.47;;;15.38;100.00
42859;BME280;28505;56.970;40.998;2022-07-18T00:52:59;99947.06;;;15.23;100.00
42859;BME280;28505;56.970;40.998;2022-07-18T00:58:21;99890.53;;;14.69;100.00
42859;BME280;28505;56.970;40.998;2022-07-18T01:03:46;99928.66;;;14.82;100.00
42859;BME280;28505;56.970;40.998;2022-07-18T01:09:09;99949.91;;;14.88;100.00
42859;BME280;28505;56.970;40.998;2022-07-18T01:14:32;99951.34;;;14.77;100.00
42859;BME280;28505;56.970;40.998;2022-07-18T01:19:55;99962.38;;;14.72;100.00
42859;BME280;28505;56.970;40.998;2022-07-18T01:25:17;99956.13;;;14.63;100.00
42859;BME280;28505;56.970;40.998;2022-07-18T01:30:40;99980.56;;;14.63;100.00
42859;BME280;28505;56.970;40.998;2022-07-18T01:36:04;99977.97;;;14.49;100.00
42859;BME280;28505;56.970;40.998;2022-07-18T01:41:27;99930.22;;;14.04;100.00
42859;BME280;28505;56.970;40.998;2022-07-18T01:46:50;99913.94;;;13.87;100.00
42859;BME280;28505;56.970;40.998;2022-07-18T01:52:13;99975.88;;;14.20;100.00
42859;BME280;28505;56.970;40.998;2022-07-18T01:57:36;99903.75;;;13.84;100.00
42859;BME280;28505;56.970;40.998;2022-07-18T02:02:59;99965.03;;;14.20;100.00
42859;BME280;28505;56.970;40.998;2022-07-18T02:08:21;99950.78;;;14.05;100.00
42859;BME280;28505;56.970;40.998;2022-07-18T02:13:44;99945.72;;;14.04;100.00
42859;BME280;28505;56.970;40.998;2022-07-18T02:19:06;99942.03;;;14.00;100.00
42859;BME280;28505;56.970;40.998;2022-07-18T02:24:29;99897.03;;;13.81;100.00
42859;BME280;28505;56.970;40.998;2022-07-18T02:29:51;99973.31;;;14.32;100.00
42859;BME280;28505;56.970;40.998;2022-07-18T02:35:14;99954.50;;;14.27;100.00
42859;BME280;28505;56.970;40.998;2022-07-18T02:40:36;99964.91;;;14.42;100.00
42859;BME280;28505;56.970;40.998;2022-07-18T02:45:58;99965.19;;;14.32;100.00
42859;BME280;28505;56.970;40.998;2022-07-18T02:51:20;99974.94;;;14.33;100.00
42859;BME280;28505;56.970;40.998;2022-07-18T02:56:42;99973.97;;;14.46;100.00
42859;BME280;28505;56.970;40.998;2022-07-18T03:02:04;99988.06;;;14.66;100.00
42859;BME280;28505;56.970;40.998;2022-07-18T03:07:27;99982.13;;;14.81;100.00
42859;BME280;28505;56.970;40.998;2022-07-18T03:12:49;99963.13;;;14.81;100.00
42859;BME280;28505;56.970;40.998;2022-07-18T03:18:11;99965.69;;;14.86;100.00
42859;BME280;28505;56.970;40.998;2022-07-18T03:23:33;99970.31;;;14.94;100.00
42859;BME280;28505;56.970;40.998;2022-07-18T03:28:55;99898.53;;;14.66;100.00
42859;BME280;28505;56.970;40.998;2022-07-18T03:34:18;99900.06;;;14.84;100.00
42859;BME280;28505;56.970;40.998;2022-07-18T03:39:53;99902.75;;;15.02;100.00
42859;BME280;28505;56.970;40.998;2022-07-18T03:45:18;99896.81;;;15.08;100.00
42859;BME280;28505;56.970;40.998;2022-07-18T03:50:40;99910.31;;;15.34;100.00
42859;BME280;28505;56.970;40.998;2022-07-18T03:56:04;99878.50;;;15.35;100.00
42859;BME280;28505;56.970;40.998;2022-07-18T04:01:26;99948.34;;;16.02;100.00
42859;BME280;28505;56.970;40.998;2022-07-18T04:06:48;99950.81;;;16.16;100.00
42859;BME280;28505;56.970;40.998;2022-07-18T04:12:11;99884.22;;;16.01;100.00
42859;BME280;28505;56.970;40.998;2022-07-18T04:17:36;99871.72;;;16.21;100.00
42859;BME280;28505;56.970;40.998;2022-07-18T04:23:01;99899.91;;;16.58;100.00
42859;BME280;28505;56.970;40.998;2022-07-18T04:28:23;99940.81;;;17.04;100.00
42859;BME280;28505;56.970;40.998;2022-07-18T04:33:45;99956.63;;;17.35;100.00
42859;BME280;28505;56.970;40.998;2022-07-18T04:39:07;99942.13;;;17.68;100.00
42859;BME280;28505;56.970;40.998;2022-07-18T04:44:30;99939.03;;;18.18;100.00
42859;BME280;28505;56.970;40.998;2022-07-18T04:49:52;99929.47;;;20.07;100.00
42859;BME280;28505;56.970;40.998;2022-07-18T04:55:15;99944.53;;;21.14;100.00
42859;BME280;28505;56.970;40.998;2022-07-18T05:00:38;99926.56;;;21.17;100.00
42859;BME280;28505;56.970;40.998;2022-07-18T05:06:00;99935.97;;;21.16;100.00
42859;BME280;28505;56.970;40.998;2022-07-18T05:11:22;99918.97;;;21.07;100.00
42859;BME280;28505;56.970;40.998;2022-07-18T05:16:44;99935.88;;;21.81;99.27
42859;BME280;28505;56.970;40.998;2022-07-18T05:22:06;99929.50;;;22.04;89.05
42859;BME280;28505;56.970;40.998;2022-07-18T05:27:28;99922.47;;;22.63;88.23
42859;BME280;28505;56.970;40.998;2022-07-18T05:32:50;99922.16;;;23.57;83.18
42859;BME280;28505;56.970;40.998;2022-07-18T05:38:14;99896.44;;;23.90;78.79
42859;BME280;28505;56.970;40.998;2022-07-18T05:43:37;99921.56;;;23.78;74.91
42859;BME280;28505;56.970;40.998;2022-07-18T05:49:03;99897.97;;;23.29;73.38
42859;BME280;28505;56.970;40.998;2022-07-18T05:54:30;99863.47;;;23.39;73.21
42859;BME280;28505;56.970;40.998;2022-07-18T05:59:53;99901.44;;;23.70;69.05
42859;BME280;28505;56.970;40.998;2022-07-18T06:05:18;99887.16;;;23.54;69.50
42859;BME280;28505;56.970;40.998;2022-07-18T06:10:45;99865.75;;;23.26;70.42
42859;BME280;28505;56.970;40.998;2022-07-18T06:16:08;99879.75;;;23.10;69.53
42859;BME280;28505;56.970;40.998;2022-07-18T06:21:31;99863.44;;;22.90;69.48
42859;BME280;28505;56.970;40.998;2022-07-18T06:26:54;99836.22;;;22.78;69.61
42859;BME280;28505;56.970;40.998;2022-07-18T06:32:16;99879.75;;;23.10;68.57
42859;BME280;28505;56.970;40.998;2022-07-18T06:37:38;99863.94;;;23.00;69.76
42859;BME280;28505;56.970;40.998;2022-07-18T06:43:01;99875.03;;;23.10;70.46
42859;BME280;28505;56.970;40.998;2022-07-18T06:48:23;99879.25;;;22.97;68.96
42859;BME280;28505;56.970;40.998;2022-07-18T06:53:45;99877.50;;;22.85;69.34
42859;BME280;28505;56.970;40.998;2022-07-18T06:59:07;99857.53;;;22.88;70.47
42859;BME280;28505;56.970;40.998;2022-07-18T07:04:30;99854.47;;;22.94;68.91
42859;BME280;28505;56.970;40.998;2022-07-18T07:09:52;99845.47;;;22.97;68.32
42859;BME280;28505;56.970;40.998;2022-07-18T07:15:17;99832.38;;;22.86;67.33
42859;BME280;28505;56.970;40.998;2022-07-18T07:20:42;99848.91;;;22.90;67.18
42859;BME280;28505;56.970;40.998;2022-07-18T07:26:05;99852.78;;;22.85;67.34
42859;BME280;28505;56.970;40.998;2022-07-18T07:31:27;99828.75;;;22.79;68.05
42859;BME280;28505;56.970;40.998;2022-07-18T07:36:50;99793.03;;;22.79;68.37
42859;BME280;28505;56.970;40.998;2022-07-18T07:42:12;99828.66;;;23.05;68.37
42859;BME280;28505;56.970;40.998;2022-07-18T07:47:36;99813.47;;;22.81;67.62
42859;BME280;28505;56.970;40.998;2022-07-18T07:53:00;99833.00;;;22.69;68.47
42859;BME280;28505;56.970;40.998;2022-07-18T07:58:24;99828.94;;;22.56;68.71
42859;BME280;28505;56.970;40.998;2022-07-18T08:03:46;99791.16;;;22.46;69.13
42859;BME280;28505;56.970;40.998;2022-07-18T08:09:11;99787.94;;;22.36;66.80
42859;BME280;28505;56.970;40.998;2022-07-18T08:14:33;99773.84;;;22.38;66.41
42859;BME280;28505;56.970;40.998;2022-07-18T08:19:59;99778.59;;;22.44;67.70
42859;BME280;28505;56.970;40.998;2022-07-18T08:25:24;99830.78;;;22.85;68.15
42859;BME280;28505;56.970;40.998;2022-07-18T08:30:49;99834.91;;;23.02;68.97
42859;BME280;28505;56.970;40.998;2022-07-18T08:36:11;99835.28;;;23.01;67.47
42859;BME280;28505;56.970;40.998;2022-07-18T08:41:33;99836.84;;;23.02;66.35
42859;BME280;28505;56.970;40.998;2022-07-18T08:46:57;99824.28;;;23.01;67.01
42859;BME280;28505;56.970;40.998;2022-07-18T08:52:21;99806.97;;;22.97;67.08
42859;BME280;28505;56.970;40.998;2022-07-18T08:58:03;99804.63;;;22.99;66.90
42859;BME280;28505;56.970;40.998;2022-07-18T09:03:46;99806.03;;;22.82;66.57
42859;BME280;28505;56.970;40.998;2022-07-18T09:09:29;99789.97;;;22.84;67.13
42859;BME280;28505;56.970;40.998;2022-07-18T09:14:54;99788.41;;;22.86;67.93
42859;BME280;28505;56.970;40.998;2022-07-18T09:20:20;99777.84;;;22.92;67.84
42859;BME280;28505;56.970;40.998;2022-07-18T09:25:43;99769.69;;;22.99;67.22
42859;BME280;28505;56.970;40.998;2022-07-18T09:31:17;99754.84;;;23.14;67.94
42859;BME280;28505;56.970;40.998;2022-07-18T09:36:54;99760.44;;;23.25;66.58
42859;BME280;28505;56.970;40.998;2022-07-18T09:42:18;99757.63;;;23.18;66.87
42859;BME280;28505;56.970;40.998;2022-07-18T09:47:55;99763.88;;;23.15;66.64
42859;BME280;28505;56.970;40.998;2022-07-18T09:53:25;99751.69;;;23.09;65.81
42859;BME280;28505;56.970;40.998;2022-07-18T09:58:55;99733.16;;;22.99;64.27
42859;BME280;28505;56.970;40.998;2022-07-18T10:04:21;99727.25;;;22.97;64.05
42859;BME280;28505;56.970;40.998;2022-07-18T10:15:07;99729.94;;;22.89;64.50
42859;BME280;28505;56.970;40.998;2022-07-18T10:20:35;99686.22;;;22.74;63.96
42859;BME280;28505;56.970;40.998;2022-07-18T10:26:20;99704.78;;;22.87;63.50
42859;BME280;28505;56.970;40.998;2022-07-18T10:32:01;99707.59;;;22.95;62.75
42859;BME280;28505;56.970;40.998;2022-07-18T10:37:24;99702.03;;;22.87;63.91
42859;BME280;28505;56.970;40.998;2022-07-18T10:48:49;99697.63;;;22.76;65.09
42859;BME280;28505;56.970;40.998;2022-07-18T10:54:11;99688.59;;;22.75;64.36
42859;BME280;28505;56.970;40.998;2022-07-18T10:59:34;99692.16;;;22.79;63.91
42859;BME280;28505;56.970;40.998;2022-07-18T11:04:57;99696.53;;;22.87;63.27
42859;BME280;28505;56.970;40.998;2022-07-18T11:21:41;99665.72;;;23.19;63.08
42859;BME280;28505;56.970;40.998;2022-07-18T11:27:04;99629.91;;;23.08;63.09
42859;BME280;28505;56.970;40.998;2022-07-18T11:32:27;99631.88;;;23.08;62.58
42859;BME280;28505;56.970;40.998;2022-07-18T11:37:51;99633.44;;;23.05;62.85
42859;BME280;28505;56.970;40.998;2022-07-18T11:43:20;99643.63;;;23.05;62.67
42859;BME280;28505;56.970;40.998;2022-07-18T11:48:44;99648.78;;;23.13;63.45
42859;BME280;28505;56.970;40.998;2022-07-18T11:54:07;99625.22;;;23.05;62.33
42859;BME280;28505;56.970;40.998;2022-07-18T11:59:56;99632.97;;;22.93;62.49
42859;BME280;28505;56.970;40.998;2022-07-18T12:05:18;99635.91;;;22.66;62.50
42859;BME280;28505;56.970;40.998;2022-07-18T12:10:40;99642.50;;;22.51;62.49
42859;BME280;28505;56.970;40.998;2022-07-18T12:16:02;99617.00;;;22.54;61.04
42859;BME280;28505;56.970;40.998;2022-07-18T12:22:23;99593.81;;;22.48;61.61
42859;BME280;28505;56.970;40.998;2022-07-18T12:27:25;99612.38;;;22.65;60.72
42859;BME280;28505;56.970;40.998;2022-07-18T12:32:49;99631.22;;;22.63;61.44
42859;BME280;28505;56.970;40.998;2022-07-18T12:38:18;99546.75;;;21.97;60.97
42859;BME280;28505;56.970;40.998;2022-07-18T12:43:42;99590.06;;;22.18;61.45
42859;BME280;28505;56.970;40.998;2022-07-18T12:49:08;99569.56;;;22.09;61.54
42859;BME280;28505;56.970;40.998;2022-07-18T12:54:31;99557.84;;;22.12;61.94
42859;BME280;28505;56.970;40.998;2022-07-18T13:00:00;99531.47;;;22.04;62.53
42859;BME280;28505;56.970;40.998;2022-07-18T13:05:27;99571.41;;;22.42;63.29
42859;BME280;28505;56.970;40.998;2022-07-18T13:10:53;99566.78;;;22.53;63.19
42859;BME280;28505;56.970;40.998;2022-07-18T13:16:19;99557.69;;;22.42;63.43
42859;BME280;28505;56.970;40.998;2022-07-18T13:21:43;99531.25;;;22.19;63.58
42859;BME280;28505;56.970;40.998;2022-07-18T13:27:08;99569.84;;;22.44;64.68
42859;BME280;28505;56.970;40.998;2022-07-18T13:32:36;99587.63;;;22.61;64.93
42859;BME280;28505;56.970;40.998;2022-07-18T13:37:59;99581.66;;;22.52;65.74
42859;BME280;28505;56.970;40.998;2022-07-18T13:43:21;99573.84;;;22.54;65.09
42859;BME280;28505;56.970;40.998;2022-07-18T13:48:43;99556.47;;;22.39;64.96
42859;BME280;28505;56.970;40.998;2022-07-18T13:54:06;99568.34;;;22.54;65.64
42859;BME280;28505;56.970;40.998;2022-07-18T13:59:29;99562.44;;;22.52;65.23
42859;BME280;28505;56.970;40.998;2022-07-18T14:04:51;99553.72;;;22.39;66.11
42859;BME280;28505;56.970;40.998;2022-07-18T14:10:31;99535.59;;;22.24;65.75
42859;BME280;28505;56.970;40.998;2022-07-18T14:15:53;99534.47;;;22.36;66.56
42859;BME280;28505;56.970;40.998;2022-07-18T14:21:15;99523.84;;;22.24;65.79
42859;BME280;28505;56.970;40.998;2022-07-18T14:26:38;99531.00;;;22.42;66.40
42859;BME280;28505;56.970;40.998;2022-07-18T14:32:00;99525.91;;;22.44;66.77
42859;BME280;28505;56.970;40.998;2022-07-18T14:37:23;99532.84;;;22.24;66.11
42859;BME280;28505;56.970;40.998;2022-07-18T14:42:45;99520.03;;;21.91;65.98
42859;BME280;28505;56.970;40.998;2022-07-18T14:48:08;99505.59;;;21.53;66.43
42859;BME280;28505;56.970;40.998;2022-07-18T14:53:30;99513.38;;;21.47;67.10
42859;BME280;28505;56.970;40.998;2022-07-18T14:58:55;99502.34;;;21.40;67.53
42859;BME280;28505;56.970;40.998;2022-07-18T15:04:17;99461.41;;;21.24;68.23
42859;BME280;28505;56.970;40.998;2022-07-18T15:09:39;99484.94;;;21.25;68.64
42859;BME280;28505;56.970;40.998;2022-07-18T15:15:01;99496.97;;;21.14;68.95
42859;BME280;28505;56.970;40.998;2022-07-18T15:20:24;99496.38;;;20.97;69.35
42859;BME280;28505;56.970;40.998;2022-07-18T15:25:46;99502.94;;;20.89;69.60
42859;BME280;28505;56.970;40.998;2022-07-18T15:31:15;99490.59;;;20.72;69.99
42859;BME280;28505;56.970;40.998;2022-07-18T15:36:37;99507.97;;;20.84;70.44
42859;BME280;28505;56.970;40.998;2022-07-18T15:41:59;99502.34;;;20.73;70.68
42859;BME280;28505;56.970;40.998;2022-07-18T15:47:21;99494.75;;;20.59;71.07
42859;BME280;28505;56.970;40.998;2022-07-18T15:52:44;99514.91;;;20.74;71.77
42859;BME280;28505;56.970;40.998;2022-07-18T15:58:06;99517.56;;;20.67;72.32
42859;BME280;28505;56.970;40.998;2022-07-18T16:03:29;99517.13;;;20.65;72.91
42859;BME280;28505;56.970;40.998;2022-07-18T16:08:51;99517.06;;;20.61;73.33
42859;BME280;28505;56.970;40.998;2022-07-18T16:14:13;99512.34;;;20.58;73.67
42859;BME280;28505;56.970;40.998;2022-07-18T16:19:35;99509.25;;;20.63;74.06
42859;BME280;28505;56.970;40.998;2022-07-18T16:24:57;99517.13;;;20.65;74.35
42859;BME280;28505;56.970;40.998;2022-07-18T16:30:23;99483.09;;;20.39;74.66
42859;BME280;28505;56.970;40.998;2022-07-18T16:36:48;99517.13;;;20.65;73.73
42859;BME280;28505;56.970;40.998;2022-07-18T16:42:43;99526.50;;;20.64;73.18
42859;BME280;28505;56.970;40.998;2022-07-18T16:48:39;99481.16;;;20.40;72.28
42859;BME280;28505;56.970;40.998;2022-07-18T16:56:04;99456.81;;;20.04;73.28
42859;BME280;28505;56.970;40.998;2022-07-18T17:02:01;99456.31;;;19.95;73.30
42859;BME280;28505;56.970;40.998;2022-07-18T17:07:54;99446.00;;;19.85;73.52
42859;BME280;28505;56.970;40.998;2022-07-18T17:14:29;99443.47;;;19.73;73.16
42859;BME280;28505;56.970;40.998;2022-07-18T17:20:27;99467.44;;;19.83;73.25
42859;BME280;28505;56.970;40.998;2022-07-18T17:32:47;99442.63;;;19.46;73.36
42859;BME280;28505;56.970;40.998;2022-07-18T17:38:30;99469.41;;;19.36;73.86
42859;BME280;28505;56.970;40.998;2022-07-18T17:43:52;99463.13;;;19.13;74.10
42859;BME280;28505;56.970;40.998;2022-07-18T17:49:14;99462.66;;;18.88;74.56
42859;BME280;28505;56.970;40.998;2022-07-18T17:54:37;99481.56;;;18.77;75.22
42859;BME280;28505;56.970;40.998;2022-07-18T17:59:59;99494.53;;;18.64;75.69
42859;BME280;28505;56.970;40.998;2022-07-18T18:05:29;99486.91;;;18.54;76.06
42859;BME280;28505;56.970;40.998;2022-07-18T18:10:55;99479.72;;;18.46;76.35
42859;BME280;28505;56.970;40.998;2022-07-18T18:16:17;99485.16;;;18.46;76.95
42859;BME280;28505;56.970;40.998;2022-07-18T18:21:40;99467.94;;;18.42;77.12
42859;BME280;28505;56.970;40.998;2022-07-18T18:27:02;99464.50;;;18.45;77.43
42859;BME280;28505;56.970;40.998;2022-07-18T18:32:25;99442.00;;;18.32;77.75
42859;BME280;28505;56.970;40.998;2022-07-18T18:37:47;99391.56;;;18.07;78.24
42859;BME280;28505;56.970;40.998;2022-07-18T18:43:09;99424.13;;;18.35;78.86
42859;BME280;28505;56.970;40.998;2022-07-18T18:48:32;99418.06;;;18.25;79.76
42859;BME280;28505;56.970;40.998;2022-07-18T18:53:55;99419.56;;;18.23;80.54
42859;BME280;28505;56.970;40.998;2022-07-18T18:59:18;99398.97;;;18.06;81.19
42859;BME280;28505;56.970;40.998;2022-07-18T19:04:41;99396.78;;;17.96;81.90
42859;BME280;28505;56.970;40.998;2022-07-18T19:10:03;99401.47;;;17.95;82.42
42859;BME280;28505;56.970;40.998;2022-07-18T19:15:26;99388.78;;;17.71;83.09
42859;BME280;28505;56.970;40.998;2022-07-18T19:20:52;99410.81;;;17.63;84.28
42859;BME280;28505;56.970;40.998;2022-07-18T19:26:14;99416.53;;;17.42;85.35
42859;BME280;28505;56.970;40.998;2022-07-18T19:31:36;99410.19;;;17.38;85.82
42859;BME280;28505;56.970;40.998;2022-07-18T19:37:03;99414.59;;;17.26;86.28
42859;BME280;28505;56.970;40.998;2022-07-18T19:42:25;99392.00;;;17.10;87.10
42859;BME280;28505;56.970;40.998;2022-07-18T19:47:46;99392.41;;;16.96;88.22
42859;BME280;28505;56.970;40.998;2022-07-18T19:53:08;99389.44;;;16.85;89.11
42859;BME280;28505;56.970;40.998;2022-07-18T19:58:30;99380.63;;;16.76;89.88
42859;BME280;28505;56.970;40.998;2022-07-18T20:03:52;99379.53;;;16.65;90.64
42859;BME280;28505;56.970;40.998;2022-07-18T20:09:17;99379.34;;;16.58;91.92
42859;BME280;28505;56.970;40.998;2022-07-18T20:14:39;99385.25;;;16.48;93.42
42859;BME280;28505;56.970;40.998;2022-07-18T20:20:03;99380.31;;;16.37;94.76
42859;BME280;28505;56.970;40.998;2022-07-18T20:25:29;99378.09;;;16.27;95.76
42859;BME280;28505;56.970;40.998;2022-07-18T20:30:52;99360.31;;;16.18;97.04
42859;BME280;28505;56.970;40.998;2022-07-18T20:36:17;99379.91;;;16.23;98.16
42859;BME280;28505;56.970;40.998;2022-07-18T20:41:41;99369.53;;;16.13;99.80
42859;BME280;28505;56.970;40.998;2022-07-18T20:47:03;99353.00;;;16.06;100.00
42859;BME280;28505;56.970;40.998;2022-07-18T20:52:26;99360.03;;;16.07;100.00
42859;BME280;28505;56.970;40.998;2022-07-18T20:57:49;99320.13;;;15.83;100.00
42859;BME280;28505;56.970;40.998;2022-07-18T21:03:12;99339.44;;;15.94;100.00
42859;BME280;28505;56.970;40.998;2022-07-18T21:08:34;99338.00;;;15.84;100.00
42859;BME280;28505;56.970;40.998;2022-07-18T21:14:00;99342.19;;;15.81;100.00
42859;BME280;28505;56.970;40.998;2022-07-18T21:19:42;99341.09;;;15.70;100.00
42859;BME280;28505;56.970;40.998;2022-07-18T21:25:06;99328.38;;;15.62;100.00
42859;BME280;28505;56.970;40.998;2022-07-18T21:30:28;99343.09;;;15.61;100.00
42859;BME280;28505;56.970;40.998;2022-07-18T21:35:50;99330.44;;;15.40;100.00
42859;BME280;28505;56.970;40.998;2022-07-18T21:41:15;99341.97;;;15.50;100.00
42859;BME280;28505;56.970;40.998;2022-07-18T21:46:44;99326.91;;;15.40;100.00
42859;BME280;28505;56.970;40.998;2022-07-18T21:52:07;99318.13;;;15.31;100.00
42859;BME280;28505;56.970;40.998;2022-07-18T21:57:29;99320.25;;;15.25;100.00
42859;BME280;28505;56.970;40.998;2022-07-18T22:02:54;99321.63;;;15.19;100.00
42859;BME280;28505;56.970;40.998;2022-07-18T22:08:16;99306.44;;;15.06;100.00
42859;BME280;28505;56.970;40.998;2022-07-18T22:13:39;99302.06;;;15.01;100.00
42859;BME280;28505;56.970;40.998;2022-07-18T22:19:01;99301.38;;;14.92;100.00
42859;BME280;28505;56.970;40.998;2022-07-18T22:24:23;99310.06;;;14.97;100.00
42859;BME280;28505;56.970;40.998;2022-07-18T22:29:49;99291.50;;;14.87;100.00
42859;BME280;28505;56.970;40.998;2022-07-18T22:35:11;99300.81;;;14.98;100.00
42859;BME280;28505;56.970;40.998;2022-07-18T22:40:34;99260.06;;;14.62;100.00
42859;BME280;28505;56.970;40.998;2022-07-18T22:46:03;99277.28;;;14.78;100.00
42859;BME280;28505;56.970;40.998;2022-07-18T22:51:28;99253.63;;;14.66;100.00
42859;BME280;28505;56.970;40.998;2022-07-18T22:56:58;99243.31;;;14.60;100.00
42859;BME280;28505;56.970;40.998;2022-07-18T23:02:37;99289.72;;;14.91;100.00
42859;BME280;28505;56.970;40.998;2022-07-18T23:08:10;99317.78;;;15.08;100.00
42859;BME280;28505;56.970;40.998;2022-07-18T23:13:43;99284.97;;;14.88;100.00
42859;BME280;28505;56.970;40.998;2022-07-18T23:19:08;99256.09;;;14.59;100.00
42859;BME280;28505;56.970;40.998;2022-07-18T23:24:32;99289.22;;;14.77;100.00
42859;BME280;28505;56.970;40.998;2022-07-18T23:29:59;99315.03;;;14.83;100.00
42859;BME280;28505;56.970;40.998;2022-07-18T23:35:21;99316.59;;;14.84;100.00
42859;BME280;28505;56.970;40.998;2022-07-18T23:40:43;99315.56;;;14.77;100.00
42859;BME280;28505;56.970;40.998;2022-07-18T23:46:06;99288.19;;;14.57;100.00
42859;BME280;28505;56.970;40.998;2022-07-18T23:51:28;99310.66;;;14.58;100.00
42859;BME280;28505;56.970;40.998;2022-07-18T23:56:51;99307.16;;;14.57;100.00
